sensor_id;sensor_type;location;lat;lon;timestamp;P1;durP1;ratioP1;P2;durP2;ratioP2
12112;SDS011;6120;52.250;8.478;2022-11-15T00:00:50;10.45;;;6.70;;
12112;SDS011;6120;52.250;8.478;2022-11-15T00:03:18;12.27;;;7.38;;
12112;SDS011;6120;52.250;8.478;2022-11-15T00:05:46;15.25;;;7.78;;
12112;SDS011;6120;52.250;8.478;2022-11-15T00:08:13;14.13;;;7.60;;
12112;SDS011;6120;52.250;8.478;2022-11-15T00:10:40;15.32;;;6.90;;
12112;SDS011;6120;52.250;8.478;2022-11-15T00:13:11;13.23;;;8.68;;
12112;SDS011;6120;52.250;8.478;2022-11-15T00:15:39;13.45;;;8.27;;
12112;SDS011;6120;52.250;8.478;2022-11-15T00:18:06;14.23;;;8.45;;
12112;SDS011;6120;52.250;8.478;2022-11-15T00:20:38;13.13;;;7.53;;
12112;SDS011;6120;52.250;8.478;2022-11-15T00:23:05;14.65;;;8.02;;
12112;SDS011;6120;52.250;8.478;2022-11-15T00:25:32;12.48;;;7.72;;
12112;SDS011;6120;52.250;8.478;2022-11-15T00:27:59;12.32;;;7.82;;
12112;SDS011;6120;52.250;8.478;2022-11-15T00:30:26;12.13;;;7.63;;
12112;SDS011;6120;52.250;8.478;2022-11-15T00:32:53;14.35;;;8.55;;
12112;SDS011;6120;52.250;8.478;2022-11-15T00:35:20;16.70;;;8.18;;
12112;SDS011;6120;52.250;8.478;2022-11-15T00:37:47;11.98;;;7.65;;
12112;SDS011;6120;52.250;8.478;2022-11-15T00:40:14;12.82;;;8.02;;
12112;SDS011;6120;52.250;8.478;2022-11-15T00:42:40;12.85;;;7.00;;
12112;SDS011;6120;52.250;8.478;2022-11-15T00:45:07;13.70;;;7.80;;
12112;SDS011;6120;52.250;8.478;2022-11-15T00:47:35;13.10;;;7.27;;
12112;SDS011;6120;52.250;8.478;2022-11-15T00:50:01;13.50;;;7.07;;
12112;SDS011;6120;52.250;8.478;2022-11-15T00:52:28;12.05;;;7.43;;
12112;SDS011;6120;52.250;8.478;2022-11-15T00:54:55;10.88;;;7.03;;
12112;SDS011;6120;52.250;8.478;2022-11-15T00:57:22;12.70;;;7.75;;
12112;SDS011;6120;52.250;8.478;2022-11-15T00:59:48;14.40;;;7.25;;
12112;SDS011;6120;52.250;8.478;2022-11-15T01:02:15;10.90;;;6.70;;
12112;SDS011;6120;52.250;8.478;2022-11-15T01:04:41;11.77;;;7.10;;
12112;SDS011;6120;52.250;8.478;2022-11-15T01:07:08;12.77;;;7.13;;
12112;SDS011;6120;52.250;8.478;2022-11-15T01:09:35;13.48;;;7.15;;
12112;SDS011;6120;52.250;8.478;2022-11-15T01:12:01;10.00;;;6.45;;
12112;SDS011;6120;52.250;8.478;2022-11-15T01:14:28;10.63;;;6.50;;
12112;SDS011;6120;52.250;8.478;2022-11-15T01:16:54;12.00;;;7.40;;
12112;SDS011;6120;52.250;8.478;2022-11-15T01:19:21;8.98;;;5.43;;
12112;SDS011;6120;52.250;8.478;2022-11-15T01:21:51;11.05;;;6.47;;
12112;SDS011;6120;52.250;8.478;2022-11-15T01:24:17;9.48;;;5.70;;
12112;SDS011;6120;52.250;8.478;2022-11-15T01:26:44;12.80;;;6.18;;
12112;SDS011;6120;52.250;8.478;2022-11-15T01:29:11;10.60;;;6.35;;
12112;SDS011;6120;52.250;8.478;2022-11-15T01:31:37;9.65;;;5.50;;
12112;SDS011;6120;52.250;8.478;2022-11-15T01:34:04;8.55;;;5.22;;
12112;SDS011;6120;52.250;8.478;2022-11-15T01:36:31;8.60;;;4.97;;
12112;SDS011;6120;52.250;8.478;2022-11-15T01:38:57;9.43;;;5.60;;
12112;SDS011;6120;52.250;8.478;2022-11-15T01:41:29;9.52;;;5.38;;
12112;SDS011;6120;52.250;8.478;2022-11-15T01:43:57;8.57;;;5.32;;
12112;SDS011;6120;52.250;8.478;2022-11-15T01:46:55;9.82;;;4.97;;
12112;SDS011;6120;52.250;8.478;2022-11-15T01:49:22;8.93;;;5.43;;
12112;SDS011;6120;52.250;8.478;2022-11-15T01:51:50;7.72;;;4.45;;
12112;SDS011;6120;52.250;8.478;2022-11-15T01:54:18;9.73;;;4.95;;
12112;SDS011;6120;52.250;8.478;2022-11-15T01:56:52;8.40;;;4.85;;
12112;SDS011;6120;52.250;8.478;2022-11-15T01:59:21;8.75;;;5.38;;
12112;SDS011;6120;52.250;8.478;2022-11-15T02:01:48;8.15;;;4.95;;
12112;SDS011;6120;52.250;8.478;2022-11-15T02:04:16;7.50;;;4.57;;
12112;SDS011;6120;52.250;8.478;2022-11-15T02:06:44;8.38;;;5.00;;
12112;SDS011;6120;52.250;8.478;2022-11-15T02:11:39;7.95;;;4.43;;
12112;SDS011;6120;52.250;8.478;2022-11-15T02:14:07;8.20;;;4.70;;
12112;SDS011;6120;52.250;8.478;2022-11-15T02:24:43;8.32;;;4.88;;
12112;SDS011;6120;52.250;8.478;2022-11-15T02:27:25;7.97;;;4.50;;
12112;SDS011;6120;52.250;8.478;2022-11-15T02:32:44;7.40;;;4.85;;
12112;SDS011;6120;52.250;8.478;2022-11-15T02:37:56;7.28;;;4.25;;
12112;SDS011;6120;52.250;8.478;2022-11-15T02:40:42;6.82;;;4.20;;
12112;SDS011;6120;52.250;8.478;2022-11-15T02:43:14;6.88;;;4.60;;
12112;SDS011;6120;52.250;8.478;2022-11-15T02:46:12;8.23;;;4.30;;
12112;SDS011;6120;52.250;8.478;2022-11-15T02:48:41;8.32;;;4.57;;
12112;SDS011;6120;52.250;8.478;2022-11-15T02:51:09;7.95;;;4.68;;
12112;SDS011;6120;52.250;8.478;2022-11-15T02:53:36;7.47;;;4.30;;
12112;SDS011;6120;52.250;8.478;2022-11-15T02:56:03;5.05;;;3.88;;
12112;SDS011;6120;52.250;8.478;2022-11-15T03:06:42;6.90;;;4.30;;
12112;SDS011;6120;52.250;8.478;2022-11-15T03:09:35;7.28;;;4.32;;
12112;SDS011;6120;52.250;8.478;2022-11-15T03:12:14;6.60;;;4.30;;
12112;SDS011;6120;52.250;8.478;2022-11-15T03:14:50;8.43;;;4.85;;
12112;SDS011;6120;52.250;8.478;2022-11-15T03:17:26;7.03;;;4.15;;
12112;SDS011;6120;52.250;8.478;2022-11-15T03:19:58;10.00;;;4.78;;
12112;SDS011;6120;52.250;8.478;2022-11-15T03:22:27;6.63;;;4.03;;
12112;SDS011;6120;52.250;8.478;2022-11-15T03:24:59;7.53;;;4.43;;
12112;SDS011;6120;52.250;8.478;2022-11-15T03:27:28;8.02;;;4.70;;
12112;SDS011;6120;52.250;8.478;2022-11-15T03:30:00;7.38;;;4.63;;
12112;SDS011;6120;52.250;8.478;2022-11-15T03:32:30;6.60;;;4.53;;
12112;SDS011;6120;52.250;8.478;2022-11-15T03:35:12;10.35;;;5.13;;
12112;SDS011;6120;52.250;8.478;2022-11-15T03:38:02;8.13;;;5.05;;
12112;SDS011;6120;52.250;8.478;2022-11-15T03:40:33;8.73;;;4.90;;
12112;SDS011;6120;52.250;8.478;2022-11-15T03:48:53;9.13;;;5.10;;
12112;SDS011;6120;52.250;8.478;2022-11-15T03:51:23;7.95;;;5.03;;
12112;SDS011;6120;52.250;8.478;2022-11-15T03:53:50;7.18;;;4.47;;
12112;SDS011;6120;52.250;8.478;2022-11-15T03:56:17;8.82;;;4.95;;
12112;SDS011;6120;52.250;8.478;2022-11-15T03:58:43;10.32;;;5.70;;
12112;SDS011;6120;52.250;8.478;2022-11-15T04:01:10;7.82;;;5.50;;
12112;SDS011;6120;52.250;8.478;2022-11-15T04:03:36;6.75;;;4.80;;
12112;SDS011;6120;52.250;8.478;2022-11-15T04:06:03;11.07;;;5.88;;
12112;SDS011;6120;52.250;8.478;2022-11-15T04:08:30;8.90;;;5.25;;
12112;SDS011;6120;52.250;8.478;2022-11-15T04:10:56;9.82;;;5.43;;
12112;SDS011;6120;52.250;8.478;2022-11-15T04:13:24;8.98;;;5.20;;
12112;SDS011;6120;52.250;8.478;2022-11-15T04:15:51;8.60;;;4.85;;
12112;SDS011;6120;52.250;8.478;2022-11-15T04:18:17;9.57;;;5.22;;
12112;SDS011;6120;52.250;8.478;2022-11-15T04:20:44;8.80;;;5.30;;
12112;SDS011;6120;52.250;8.478;2022-11-15T04:23:29;8.18;;;5.35;;
12112;SDS011;6120;52.250;8.478;2022-11-15T04:26:33;10.27;;;5.55;;
12112;SDS011;6120;52.250;8.478;2022-11-15T04:29:00;9.05;;;4.95;;
12112;SDS011;6120;52.250;8.478;2022-11-15T04:31:45;9.25;;;5.45;;
12112;SDS011;6120;52.250;8.478;2022-11-15T04:34:12;10.00;;;5.72;;
12112;SDS011;6120;52.250;8.478;2022-11-15T04:36:38;11.00;;;6.03;;
12112;SDS011;6120;52.250;8.478;2022-11-15T04:39:23;10.52;;;6.68;;
12112;SDS011;6120;52.250;8.478;2022-11-15T04:41:50;9.73;;;5.78;;
12112;SDS011;6120;52.250;8.478;2022-11-15T04:44:16;8.50;;;5.90;;
12112;SDS011;6120;52.250;8.478;2022-11-15T04:46:43;10.30;;;6.07;;
12112;SDS011;6120;52.250;8.478;2022-11-15T04:49:10;10.40;;;6.25;;
12112;SDS011;6120;52.250;8.478;2022-11-15T04:51:36;9.73;;;5.18;;
12112;SDS011;6120;52.250;8.478;2022-11-15T04:54:03;8.75;;;5.70;;
12112;SDS011;6120;52.250;8.478;2022-11-15T04:56:29;10.05;;;5.60;;
12112;SDS011;6120;52.250;8.478;2022-11-15T04:58:56;10.98;;;5.85;;
12112;SDS011;6120;52.250;8.478;2022-11-15T05:01:23;10.60;;;6.50;;
12112;SDS011;6120;52.250;8.478;2022-11-15T05:03:49;11.32;;;6.18;;
12112;SDS011;6120;52.250;8.478;2022-11-15T05:06:34;11.57;;;5.85;;
12112;SDS011;6120;52.250;8.478;2022-11-15T05:09:01;11.27;;;6.32;;
12112;SDS011;6120;52.250;8.478;2022-11-15T05:11:28;10.25;;;5.63;;
12112;SDS011;6120;52.250;8.478;2022-11-15T05:13:55;11.00;;;6.30;;
12112;SDS011;6120;52.250;8.478;2022-11-15T05:16:21;10.65;;;6.32;;
12112;SDS011;6120;52.250;8.478;2022-11-15T05:18:52;12.43;;;6.75;;
12112;SDS011;6120;52.250;8.478;2022-11-15T05:21:19;13.18;;;7.00;;
12112;SDS011;6120;52.250;8.478;2022-11-15T05:23:47;13.65;;;7.38;;
12112;SDS011;6120;52.250;8.478;2022-11-15T05:26:16;9.73;;;6.82;;
12112;SDS011;6120;52.250;8.478;2022-11-15T05:28:43;12.27;;;7.97;;
12112;SDS011;6120;52.250;8.478;2022-11-15T05:31:11;10.60;;;6.78;;
12112;SDS011;6120;52.250;8.478;2022-11-15T05:33:40;14.55;;;7.75;;
12112;SDS011;6120;52.250;8.478;2022-11-15T05:39:04;12.77;;;7.00;;
12112;SDS011;6120;52.250;8.478;2022-11-15T05:41:51;11.90;;;7.53;;
12112;SDS011;6120;52.250;8.478;2022-11-15T05:44:20;12.43;;;7.15;;
12112;SDS011;6120;52.250;8.478;2022-11-15T05:49:15;13.30;;;7.20;;
12112;SDS011;6120;52.250;8.478;2022-11-15T05:51:43;13.35;;;7.70;;
12112;SDS011;6120;52.250;8.478;2022-11-15T05:54:11;15.10;;;8.05;;
12112;SDS011;6120;52.250;8.478;2022-11-15T05:56:38;10.90;;;7.50;;
12112;SDS011;6120;52.250;8.478;2022-11-15T05:59:04;12.65;;;8.20;;
12112;SDS011;6120;52.250;8.478;2022-11-15T06:01:32;12.68;;;7.90;;
12112;SDS011;6120;52.250;8.478;2022-11-15T06:03:58;13.05;;;7.57;;
12112;SDS011;6120;52.250;8.478;2022-11-15T06:06:26;13.95;;;8.27;;
12112;SDS011;6120;52.250;8.478;2022-11-15T06:08:53;10.68;;;7.15;;
12112;SDS011;6120;52.250;8.478;2022-11-15T06:11:20;13.75;;;8.45;;
12112;SDS011;6120;52.250;8.478;2022-11-15T06:13:47;16.05;;;8.20;;
12112;SDS011;6120;52.250;8.478;2022-11-15T06:16:13;15.85;;;7.88;;
12112;SDS011;6120;52.250;8.478;2022-11-15T06:18:40;11.93;;;7.30;;
12112;SDS011;6120;52.250;8.478;2022-11-15T06:21:07;11.98;;;7.53;;
12112;SDS011;6120;52.250;8.478;2022-11-15T06:23:34;14.02;;;7.65;;
12112;SDS011;6120;52.250;8.478;2022-11-15T06:26:01;12.23;;;7.97;;
12112;SDS011;6120;52.250;8.478;2022-11-15T06:28:29;13.37;;;8.50;;
12112;SDS011;6120;52.250;8.478;2022-11-15T06:31:05;11.68;;;7.65;;
12112;SDS011;6120;52.250;8.478;2022-11-15T06:33:33;12.68;;;7.15;;
12112;SDS011;6120;52.250;8.478;2022-11-15T06:36:04;13.90;;;7.55;;
12112;SDS011;6120;52.250;8.478;2022-11-15T06:38:32;12.85;;;7.60;;
12112;SDS011;6120;52.250;8.478;2022-11-15T06:41:02;12.18;;;7.25;;
12112;SDS011;6120;52.250;8.478;2022-11-15T06:43:29;14.75;;;8.60;;
12112;SDS011;6120;52.250;8.478;2022-11-15T06:46:00;12.10;;;8.00;;
12112;SDS011;6120;52.250;8.478;2022-11-15T06:48:28;12.98;;;7.32;;
12112;SDS011;6120;52.250;8.478;2022-11-15T06:50:55;11.93;;;7.18;;
12112;SDS011;6120;52.250;8.478;2022-11-15T06:53:23;13.88;;;7.30;;
12112;SDS011;6120;52.250;8.478;2022-11-15T06:55:50;10.77;;;6.22;;
12112;SDS011;6120;52.250;8.478;2022-11-15T06:58:21;11.43;;;6.70;;
12112;SDS011;6120;52.250;8.478;2022-11-15T07:00:47;9.00;;;6.07;;
12112;SDS011;6120;52.250;8.478;2022-11-15T07:03:14;10.57;;;6.28;;
12112;SDS011;6120;52.250;8.478;2022-11-15T07:05:40;11.32;;;6.70;;
12112;SDS011;6120;52.250;8.478;2022-11-15T07:08:07;12.07;;;7.10;;
12112;SDS011;6120;52.250;8.478;2022-11-15T07:10:35;9.38;;;6.20;;
12112;SDS011;6120;52.250;8.478;2022-11-15T07:13:01;10.60;;;6.35;;
12112;SDS011;6120;52.250;8.478;2022-11-15T07:15:28;15.25;;;7.25;;
12112;SDS011;6120;52.250;8.478;2022-11-15T07:17:55;10.90;;;6.50;;
12112;SDS011;6120;52.250;8.478;2022-11-15T07:20:21;10.40;;;6.28;;
12112;SDS011;6120;52.250;8.478;2022-11-15T07:22:48;10.73;;;6.15;;
12112;SDS011;6120;52.250;8.478;2022-11-15T07:25:14;10.38;;;6.20;;
12112;SDS011;6120;52.250;8.478;2022-11-15T07:27:41;10.27;;;5.95;;
12112;SDS011;6120;52.250;8.478;2022-11-15T07:30:08;8.65;;;5.53;;
12112;SDS011;6120;52.250;8.478;2022-11-15T07:32:35;11.68;;;6.50;;
12112;SDS011;6120;52.250;8.478;2022-11-15T07:35:01;10.23;;;6.05;;
12112;SDS011;6120;52.250;8.478;2022-11-15T07:37:28;10.13;;;6.30;;
12112;SDS011;6120;52.250;8.478;2022-11-15T07:39:54;10.82;;;6.38;;
12112;SDS011;6120;52.250;8.478;2022-11-15T07:42:21;9.73;;;6.28;;
12112;SDS011;6120;52.250;8.478;2022-11-15T07:45:06;9.15;;;5.90;;
12112;SDS011;6120;52.250;8.478;2022-11-15T07:47:33;11.88;;;5.88;;
12112;SDS011;6120;52.250;8.478;2022-11-15T07:50:00;9.88;;;5.63;;
12112;SDS011;6120;52.250;8.478;2022-11-15T07:52:26;12.10;;;7.05;;
12112;SDS011;6120;52.250;8.478;2022-11-15T07:54:53;10.00;;;6.13;;
12112;SDS011;6120;52.250;8.478;2022-11-15T07:57:20;10.15;;;6.38;;
12112;SDS011;6120;52.250;8.478;2022-11-15T07:59:46;9.32;;;6.15;;
12112;SDS011;6120;52.250;8.478;2022-11-15T08:02:13;9.27;;;6.10;;
12112;SDS011;6120;52.250;8.478;2022-11-15T08:04:39;11.20;;;6.13;;
12112;SDS011;6120;52.250;8.478;2022-11-15T08:07:06;10.13;;;6.07;;
12112;SDS011;6120;52.250;8.478;2022-11-15T08:09:33;9.38;;;5.95;;
12112;SDS011;6120;52.250;8.478;2022-11-15T08:11:59;9.30;;;5.68;;
12112;SDS011;6120;52.250;8.478;2022-11-15T08:14:26;9.93;;;5.88;;
12112;SDS011;6120;52.250;8.478;2022-11-15T08:16:54;8.52;;;5.68;;
12112;SDS011;6120;52.250;8.478;2022-11-15T08:19:21;9.98;;;5.45;;
12112;SDS011;6120;52.250;8.478;2022-11-15T08:21:47;11.40;;;6.47;;
12112;SDS011;6120;52.250;8.478;2022-11-15T08:24:14;10.27;;;6.03;;
12112;SDS011;6120;52.250;8.478;2022-11-15T08:26:41;10.95;;;5.55;;
12112;SDS011;6120;52.250;8.478;2022-11-15T08:29:08;10.13;;;6.03;;
12112;SDS011;6120;52.250;8.478;2022-11-15T08:31:35;9.20;;;5.90;;
12112;SDS011;6120;52.250;8.478;2022-11-15T08:34:05;9.55;;;5.82;;
12112;SDS011;6120;52.250;8.478;2022-11-15T08:36:32;8.18;;;5.55;;
12112;SDS011;6120;52.250;8.478;2022-11-15T08:39:10;9.30;;;5.47;;
12112;SDS011;6120;52.250;8.478;2022-11-15T08:41:38;8.02;;;5.00;;
12112;SDS011;6120;52.250;8.478;2022-11-15T08:44:05;9.20;;;5.75;;
12112;SDS011;6120;52.250;8.478;2022-11-15T08:46:32;7.65;;;4.55;;
12112;SDS011;6120;52.250;8.478;2022-11-15T08:48:58;8.32;;;5.13;;
12112;SDS011;6120;52.250;8.478;2022-11-15T08:51:25;8.40;;;4.72;;
12112;SDS011;6120;52.250;8.478;2022-11-15T08:53:52;8.13;;;5.00;;
12112;SDS011;6120;52.250;8.478;2022-11-15T08:56:18;7.47;;;4.75;;
12112;SDS011;6120;52.250;8.478;2022-11-15T08:58:45;7.90;;;4.90;;
12112;SDS011;6120;52.250;8.478;2022-11-15T09:01:16;11.27;;;5.40;;
12112;SDS011;6120;52.250;8.478;2022-11-15T09:03:44;11.25;;;5.38;;
12112;SDS011;6120;52.250;8.478;2022-11-15T09:06:11;7.90;;;5.38;;
12112;SDS011;6120;52.250;8.478;2022-11-15T09:08:38;7.05;;;4.90;;
12112;SDS011;6120;52.250;8.478;2022-11-15T09:11:13;9.90;;;4.68;;
12112;SDS011;6120;52.250;8.478;2022-11-15T09:13:42;9.25;;;4.75;;
12112;SDS011;6120;52.250;8.478;2022-11-15T09:16:09;7.15;;;4.32;;
12112;SDS011;6120;52.250;8.478;2022-11-15T09:21:04;7.40;;;4.25;;
12112;SDS011;6120;52.250;8.478;2022-11-15T09:23:30;6.93;;;3.58;;
12112;SDS011;6120;52.250;8.478;2022-11-15T09:25:58;5.15;;;2.95;;
12112;SDS011;6120;52.250;8.478;2022-11-15T09:28:26;5.00;;;2.95;;
12112;SDS011;6120;52.250;8.478;2022-11-15T09:31:00;4.93;;;2.53;;
12112;SDS011;6120;52.250;8.478;2022-11-15T09:33:30;5.88;;;3.00;;
12112;SDS011;6120;52.250;8.478;2022-11-15T09:36:00;3.40;;;2.30;;
12112;SDS011;6120;52.250;8.478;2022-11-15T09:38:28;3.90;;;2.10;;
12112;SDS011;6120;52.250;8.478;2022-11-15T09:41:40;4.57;;;2.40;;
12112;SDS011;6120;52.250;8.478;2022-11-15T09:46:36;4.32;;;1.90;;
12112;SDS011;6120;52.250;8.478;2022-11-15T09:49:09;3.30;;;2.03;;
12112;SDS011;6120;52.250;8.478;2022-11-15T09:51:40;5.45;;;2.10;;
12112;SDS011;6120;52.250;8.478;2022-11-15T09:54:29;3.42;;;2.08;;
12112;SDS011;6120;52.250;8.478;2022-11-15T10:05:46;4.30;;;2.20;;
12112;SDS011;6120;52.250;8.478;2022-11-15T10:08:22;2.63;;;1.80;;
12112;SDS011;6120;52.250;8.478;2022-11-15T10:11:02;4.53;;;1.90;;
12112;SDS011;6120;52.250;8.478;2022-11-15T10:13:50;3.95;;;1.85;;
12112;SDS011;6120;52.250;8.478;2022-11-15T10:21:49;3.70;;;1.77;;
12112;SDS011;6120;52.250;8.478;2022-11-15T10:24:34;2.80;;;1.73;;
12112;SDS011;6120;52.250;8.478;2022-11-15T10:27:03;5.65;;;1.80;;
12112;SDS011;6120;52.250;8.478;2022-11-15T10:29:35;2.53;;;1.52;;
12112;SDS011;6120;52.250;8.478;2022-11-15T10:32:02;3.42;;;1.90;;
12112;SDS011;6120;52.250;8.478;2022-11-15T10:34:28;4.57;;;2.00;;
12112;SDS011;6120;52.250;8.478;2022-11-15T10:39:22;3.13;;;1.50;;
12112;SDS011;6120;52.250;8.478;2022-11-15T10:41:49;2.50;;;1.65;;
12112;SDS011;6120;52.250;8.478;2022-11-15T10:46:43;4.78;;;1.40;;
12112;SDS011;6120;52.250;8.478;2022-11-15T10:49:18;2.20;;;1.30;;
12112;SDS011;6120;52.250;8.478;2022-11-15T10:52:02;2.25;;;1.40;;
12112;SDS011;6120;52.250;8.478;2022-11-15T10:54:46;3.38;;;1.25;;
12112;SDS011;6120;52.250;8.478;2022-11-15T10:57:15;3.92;;;1.45;;
12112;SDS011;6120;52.250;8.478;2022-11-15T11:04:51;2.33;;;1.15;;
12112;SDS011;6120;52.250;8.478;2022-11-15T11:07:25;3.05;;;1.23;;
12112;SDS011;6120;52.250;8.478;2022-11-15T11:09:57;2.40;;;1.15;;
12112;SDS011;6120;52.250;8.478;2022-11-15T11:12:28;2.30;;;1.02;;
12112;SDS011;6120;52.250;8.478;2022-11-15T11:15:00;2.60;;;1.02;;
12112;SDS011;6120;52.250;8.478;2022-11-15T11:20:10;1.48;;;1.00;;
12112;SDS011;6120;52.250;8.478;2022-11-15T11:23:13;6.05;;;1.30;;
12112;SDS011;6120;52.250;8.478;2022-11-15T11:29:00;4.72;;;1.08;;
12112;SDS011;6120;52.250;8.478;2022-11-15T11:48:12;1.63;;;0.90;;
12112;SDS011;6120;52.250;8.478;2022-11-15T11:50:41;2.67;;;1.00;;
12112;SDS011;6120;52.250;8.478;2022-11-15T11:53:11;1.90;;;0.93;;
12112;SDS011;6120;52.250;8.478;2022-11-15T11:55:41;3.28;;;1.10;;
12112;SDS011;6120;52.250;8.478;2022-11-15T11:58:14;2.50;;;0.90;;
12112;SDS011;6120;52.250;8.478;2022-11-15T12:00:51;1.27;;;0.80;;
12112;SDS011;6120;52.250;8.478;2022-11-15T12:06:01;1.58;;;1.00;;
12112;SDS011;6120;52.250;8.478;2022-11-15T12:08:32;3.50;;;1.13;;
12112;SDS011;6120;52.250;8.478;2022-11-15T12:13:57;2.88;;;1.17;;
12112;SDS011;6120;52.250;8.478;2022-11-15T12:16:29;2.10;;;1.00;;
12112;SDS011;6120;52.250;8.478;2022-11-15T12:19:02;1.67;;;1.17;;
12112;SDS011;6120;52.250;8.478;2022-11-15T12:24:06;1.50;;;1.05;;
12112;SDS011;6120;52.250;8.478;2022-11-15T12:26:40;2.45;;;1.33;;
12112;SDS011;6120;52.250;8.478;2022-11-15T12:29:15;4.38;;;1.42;;
12112;SDS011;6120;52.250;8.478;2022-11-15T12:31:45;2.72;;;1.55;;
12112;SDS011;6120;52.250;8.478;2022-11-15T12:36:49;2.10;;;1.20;;
12112;SDS011;6120;52.250;8.478;2022-11-15T12:39:17;2.70;;;1.30;;
12112;SDS011;6120;52.250;8.478;2022-11-15T13:02:22;2.03;;;1.30;;
12112;SDS011;6120;52.250;8.478;2022-11-15T13:04:52;1.75;;;1.20;;
12112;SDS011;6120;52.250;8.478;2022-11-15T13:12:55;3.05;;;1.60;;
12112;SDS011;6120;52.250;8.478;2022-11-15T13:21:28;1.85;;;1.20;;
12112;SDS011;6120;52.250;8.478;2022-11-15T13:24:13;2.17;;;1.17;;
12112;SDS011;6120;52.250;8.478;2022-11-15T13:26:40;4.47;;;1.30;;
12112;SDS011;6120;52.250;8.478;2022-11-15T13:29:17;2.03;;;1.13;;
12112;SDS011;6120;52.250;8.478;2022-11-15T13:31:45;4.30;;;1.47;;
12112;SDS011;6120;52.250;8.478;2022-11-15T13:34:31;2.00;;;1.20;;
12112;SDS011;6120;52.250;8.478;2022-11-15T13:39:46;1.88;;;1.23;;
12112;SDS011;6120;52.250;8.478;2022-11-15T13:42:18;2.63;;;1.42;;
12112;SDS011;6120;52.250;8.478;2022-11-15T13:44:59;2.72;;;1.67;;
12112;SDS011;6120;52.250;8.478;2022-11-15T13:47:28;7.13;;;1.83;;
12112;SDS011;6120;52.250;8.478;2022-11-15T13:49:59;2.10;;;1.40;;
12112;SDS011;6120;52.250;8.478;2022-11-15T13:52:28;1.83;;;1.10;;
12112;SDS011;6120;52.250;8.478;2022-11-15T13:54:59;1.40;;;1.00;;
12112;SDS011;6120;52.250;8.478;2022-11-15T13:57:48;2.40;;;1.33;;
12112;SDS011;6120;52.250;8.478;2022-11-15T14:00:40;2.35;;;1.30;;
12112;SDS011;6120;52.250;8.478;2022-11-15T14:06:07;4.03;;;1.17;;
12112;SDS011;6120;52.250;8.478;2022-11-15T14:11:30;2.50;;;1.10;;
12112;SDS011;6120;52.250;8.478;2022-11-15T14:16:42;3.13;;;1.00;;
12112;SDS011;6120;52.250;8.478;2022-11-15T14:19:11;2.35;;;1.27;;
12112;SDS011;6120;52.250;8.478;2022-11-15T14:27:33;2.35;;;1.30;;
12112;SDS011;6120;52.250;8.478;2022-11-15T14:30:00;2.92;;;1.30;;
12112;SDS011;6120;52.250;8.478;2022-11-15T14:32:28;2.92;;;1.30;;
12112;SDS011;6120;52.250;8.478;2022-11-15T14:34:57;3.70;;;1.23;;
12112;SDS011;6120;52.250;8.478;2022-11-15T14:37:26;6.22;;;1.50;;
12112;SDS011;6120;52.250;8.478;2022-11-15T14:40:04;2.40;;;1.10;;
12112;SDS011;6120;52.250;8.478;2022-11-15T14:42:32;2.08;;;1.00;;
12112;SDS011;6120;52.250;8.478;2022-11-15T14:44:58;2.67;;;1.23;;
12112;SDS011;6120;52.250;8.478;2022-11-15T14:47:25;2.15;;;1.08;;
12112;SDS011;6120;52.250;8.478;2022-11-15T14:49:51;1.60;;;0.98;;
12112;SDS011;6120;52.250;8.478;2022-11-15T14:52:28;3.45;;;1.10;;
12112;SDS011;6120;52.250;8.478;2022-11-15T14:54:58;3.53;;;1.08;;
12112;SDS011;6120;52.250;8.478;2022-11-15T14:57:25;1.38;;;0.90;;
12112;SDS011;6120;52.250;8.478;2022-11-15T14:59:52;3.25;;;1.00;;
12112;SDS011;6120;52.250;8.478;2022-11-15T15:02:23;1.85;;;1.13;;
12112;SDS011;6120;52.250;8.478;2022-11-15T15:04:51;2.10;;;1.10;;
12112;SDS011;6120;52.250;8.478;2022-11-15T15:07:18;2.45;;;1.30;;
12112;SDS011;6120;52.250;8.478;2022-11-15T15:09:45;2.55;;;1.30;;
12112;SDS011;6120;52.250;8.478;2022-11-15T15:12:19;2.28;;;1.25;;
12112;SDS011;6120;52.250;8.478;2022-11-15T15:14:47;3.45;;;1.40;;
12112;SDS011;6120;52.250;8.478;2022-11-15T15:17:15;3.65;;;1.58;;
12112;SDS011;6120;52.250;8.478;2022-11-15T15:19:42;2.65;;;1.40;;
12112;SDS011;6120;52.250;8.478;2022-11-15T15:22:13;3.05;;;1.40;;
12112;SDS011;6120;52.250;8.478;2022-11-15T15:24:42;4.28;;;1.90;;
12112;SDS011;6120;52.250;8.478;2022-11-15T15:27:09;3.65;;;1.80;;
12112;SDS011;6120;52.250;8.478;2022-11-15T15:29:36;7.03;;;2.05;;
12112;SDS011;6120;52.250;8.478;2022-11-15T15:32:04;3.75;;;1.90;;
12112;SDS011;6120;52.250;8.478;2022-11-15T15:34:31;2.47;;;1.80;;
12112;SDS011;6120;52.250;8.478;2022-11-15T15:39:54;4.32;;;2.00;;
12112;SDS011;6120;52.250;8.478;2022-11-15T15:42:22;5.15;;;2.40;;
12112;SDS011;6120;52.250;8.478;2022-11-15T15:44:49;4.20;;;2.20;;
12112;SDS011;6120;52.250;8.478;2022-11-15T15:47:20;3.72;;;2.15;;
12112;SDS011;6120;52.250;8.478;2022-11-15T15:49:48;4.32;;;2.05;;
12112;SDS011;6120;52.250;8.478;2022-11-15T15:52:16;4.90;;;1.88;;
12112;SDS011;6120;52.250;8.478;2022-11-15T15:54:43;4.20;;;2.38;;
12112;SDS011;6120;52.250;8.478;2022-11-15T15:57:11;4.10;;;2.20;;
12112;SDS011;6120;52.250;8.478;2022-11-15T15:59:38;3.97;;;2.30;;
12112;SDS011;6120;52.250;8.478;2022-11-15T16:02:05;3.95;;;2.00;;
12112;SDS011;6120;52.250;8.478;2022-11-15T16:04:32;4.72;;;2.58;;
12112;SDS011;6120;52.250;8.478;2022-11-15T16:06:59;4.05;;;2.30;;
12112;SDS011;6120;52.250;8.478;2022-11-15T16:09:26;4.57;;;2.30;;
12112;SDS011;6120;52.250;8.478;2022-11-15T16:12:11;4.65;;;2.42;;
12112;SDS011;6120;52.250;8.478;2022-11-15T16:14:38;4.93;;;2.53;;
12112;SDS011;6120;52.250;8.478;2022-11-15T16:17:04;4.35;;;2.80;;
12112;SDS011;6120;52.250;8.478;2022-11-15T16:19:31;5.18;;;2.90;;
12112;SDS011;6120;52.250;8.478;2022-11-15T16:21:58;3.65;;;2.20;;
12112;SDS011;6120;52.250;8.478;2022-11-15T16:24:24;3.70;;;2.38;;
12112;SDS011;6120;52.250;8.478;2022-11-15T16:26:51;4.97;;;2.83;;
12112;SDS011;6120;52.250;8.478;2022-11-15T16:29:18;3.67;;;2.40;;
12112;SDS011;6120;52.250;8.478;2022-11-15T16:31:44;4.13;;;2.40;;
12112;SDS011;6120;52.250;8.478;2022-11-15T16:34:11;5.55;;;2.70;;
12112;SDS011;6120;52.250;8.478;2022-11-15T16:36:37;5.55;;;2.95;;
12112;SDS011;6120;52.250;8.478;2022-11-15T16:39:04;8.27;;;2.47;;
12112;SDS011;6120;52.250;8.478;2022-11-15T16:41:31;5.53;;;2.72;;
12112;SDS011;6120;52.250;8.478;2022-11-15T16:43:57;6.63;;;2.95;;
12112;SDS011;6120;52.250;8.478;2022-11-15T16:46:25;5.10;;;2.67;;
12112;SDS011;6120;52.250;8.478;2022-11-15T16:48:52;6.25;;;3.13;;
12112;SDS011;6120;52.250;8.478;2022-11-15T16:51:19;5.47;;;2.95;;
12112;SDS011;6120;52.250;8.478;2022-11-15T16:53:46;4.97;;;2.70;;
12112;SDS011;6120;52.250;8.478;2022-11-15T16:56:27;4.37;;;2.80;;
12112;SDS011;6120;52.250;8.478;2022-11-15T16:58:55;7.57;;;2.78;;
12112;SDS011;6120;52.250;8.478;2022-11-15T17:01:35;6.70;;;2.60;;
12112;SDS011;6120;52.250;8.478;2022-11-15T17:04:16;6.10;;;2.67;;
12112;SDS011;6120;52.250;8.478;2022-11-15T17:06:45;5.47;;;2.70;;
12112;SDS011;6120;52.250;8.478;2022-11-15T17:09:20;5.15;;;2.70;;
12112;SDS011;6120;52.250;8.478;2022-11-15T17:11:50;4.47;;;2.55;;
12112;SDS011;6120;52.250;8.478;2022-11-15T17:14:17;4.18;;;2.47;;
12112;SDS011;6120;52.250;8.478;2022-11-15T17:16:43;6.88;;;3.03;;
12112;SDS011;6120;52.250;8.478;2022-11-15T17:19:11;4.78;;;2.75;;
12112;SDS011;6120;52.250;8.478;2022-11-15T17:21:42;7.72;;;3.03;;
12112;SDS011;6120;52.250;8.478;2022-11-15T17:24:09;7.45;;;3.10;;
12112;SDS011;6120;52.250;8.478;2022-11-15T17:26:36;10.63;;;4.80;;
12112;SDS011;6120;52.250;8.478;2022-11-15T17:29:06;6.93;;;3.40;;
12112;SDS011;6120;52.250;8.478;2022-11-15T17:31:36;5.65;;;3.10;;
12112;SDS011;6120;52.250;8.478;2022-11-15T17:34:04;7.45;;;3.70;;
12112;SDS011;6120;52.250;8.478;2022-11-15T17:36:31;4.95;;;2.92;;
12112;SDS011;6120;52.250;8.478;2022-11-15T17:38:58;6.93;;;3.60;;
12112;SDS011;6120;52.250;8.478;2022-11-15T17:41:26;7.35;;;3.40;;
12112;SDS011;6120;52.250;8.478;2022-11-15T17:43:54;7.68;;;3.80;;